createdAt,value
2023-05-19T00:02:18.486Z,99.90
2023-05-19T00:04:47.513Z,99.90
2023-05-19T00:07:19.901Z,99.90
2023-05-19T00:09:47.459Z,99.90
2023-05-19T00:12:15.898Z,99.90
2023-05-19T00:14:43.416Z,99.90
2023-05-19T00:17:11.093Z,99.90
2023-05-19T00:19:39.632Z,99.90
2023-05-19T00:22:07.017Z,99.90
2023-05-19T00:24:34.988Z,99.90
2023-05-19T00:27:02.611Z,99.90
2023-05-19T00:29:30.084Z,99.90
2023-05-19T00:31:57.554Z,99.90
2023-05-19T00:34:24.825Z,99.90
2023-05-19T00:36:52.106Z,99.90
2023-05-19T00:39:19.530Z,99.90
2023-05-19T00:41:46.985Z,99.90
2023-05-19T00:44:14.448Z,99.90
2023-05-19T00:46:41.965Z,99.90
2023-05-19T00:49:09.361Z,99.90
2023-05-19T00:51:37.385Z,99.90
2023-05-19T00:54:05.278Z,99.90
2023-05-19T00:56:32.978Z,99.90
2023-05-19T00:59:01.311Z,99.90
2023-05-19T01:01:29.098Z,99.90
2023-05-19T01:03:59.273Z,99.90
2023-05-19T01:06:27.976Z,99.90
2023-05-19T01:08:56.388Z,99.90
2023-05-19T01:11:23.675Z,99.90
2023-05-19T01:13:51.127Z,99.90
2023-05-19T01:16:24.397Z,99.90
2023-05-19T01:19:13.193Z,99.90
2023-05-19T01:22:07.083Z,99.90
2023-05-19T01:24:43.183Z,99.90
2023-05-19T01:27:29.051Z,99.90
2023-05-19T01:30:28.877Z,99.90
2023-05-19T01:33:02.525Z,99.90
2023-05-19T01:35:31.387Z,99.90
2023-05-19T01:38:00.683Z,99.90
2023-05-19T01:40:28.989Z,99.90
2023-05-19T01:42:59.615Z,99.90
2023-05-19T01:45:29.523Z,99.90
2023-05-19T01:47:59.472Z,99.90
2023-05-19T01:50:27.034Z,99.90
2023-05-19T01:52:55.155Z,99.90
2023-05-19T01:55:23.965Z,99.90
2023-05-19T01:58:00.434Z,99.90
2023-05-19T02:00:49.232Z,99.90
2023-05-19T02:03:26.022Z,99.90
2023-05-19T02:05:58.648Z,99.90
2023-05-19T02:08:52.273Z,99.90
2023-05-19T02:11:40.336Z,99.90
2023-05-19T02:14:33.009Z,99.90
2023-05-19T02:17:01.203Z,99.90
2023-05-19T02:19:42.494Z,99.90
2023-05-19T02:22:09.925Z,99.90
2023-05-19T02:24:37.853Z,99.90
2023-05-19T02:27:05.748Z,99.90
2023-05-19T02:29:33.015Z,99.90
2023-05-19T02:32:02.294Z,99.90
2023-05-19T02:34:29.631Z,99.90
2023-05-19T02:36:57.164Z,99.90
2023-05-19T02:39:24.416Z,99.90
2023-05-19T02:41:51.713Z,99.90
2023-05-19T02:44:18.974Z,99.90
2023-05-19T02:46:46.319Z,99.90
2023-05-19T02:49:13.697Z,99.90
2023-05-19T02:51:40.936Z,99.90
2023-05-19T02:54:08.258Z,99.90
2023-05-19T02:56:35.568Z,99.90
2023-05-19T02:59:02.983Z,99.90
2023-05-19T03:01:30.312Z,99.90
2023-05-19T03:03:57.654Z,99.90
2023-05-19T03:06:24.924Z,99.90
2023-05-19T03:08:52.258Z,99.90
2023-05-19T03:11:19.600Z,99.90
2023-05-19T03:13:46.907Z,99.90
2023-05-19T03:16:14.258Z,99.90
2023-05-19T03:18:41.839Z,99.90
2023-05-19T03:21:09.280Z,99.90
2023-05-19T03:23:36.528Z,99.90
2023-05-19T03:26:04.428Z,99.90
2023-05-19T03:28:32.159Z,99.90
2023-05-19T03:30:59.537Z,99.90
2023-05-19T03:33:30.039Z,99.90
2023-05-19T03:35:57.838Z,99.90
2023-05-19T03:38:25.430Z,99.90
2023-05-19T03:40:53.825Z,99.90
2023-05-19T03:43:21.293Z,99.90
2023-05-19T03:45:48.905Z,99.90
2023-05-19T03:48:16.768Z,99.90
2023-05-19T03:50:45.200Z,99.90
2023-05-19T03:53:12.638Z,99.90
2023-05-19T03:55:39.969Z,99.90
2023-05-19T03:58:07.390Z,99.90
2023-05-19T04:00:34.911Z,99.90
2023-05-19T04:03:02.623Z,99.90
2023-05-19T04:05:29.946Z,99.90
2023-05-19T04:07:57.281Z,99.90
2023-05-19T04:10:24.510Z,99.90
2023-05-19T04:12:51.786Z,99.90
2023-05-19T04:15:19.420Z,99.90
2023-05-19T04:17:46.736Z,99.90
2023-05-19T04:20:14.083Z,99.90
2023-05-19T04:22:41.690Z,99.90
2023-05-19T04:25:09.648Z,99.90
2023-05-19T04:27:39.061Z,99.90
2023-05-19T04:30:07.595Z,99.90
2023-05-19T04:32:34.953Z,99.90
2023-05-19T04:35:03.424Z,99.90
2023-05-19T04:37:30.776Z,99.90
2023-05-19T04:39:58.122Z,99.90
2023-05-19T04:42:26.378Z,99.90
2023-05-19T04:44:53.733Z,99.90
2023-05-19T04:47:21.845Z,99.90
2023-05-19T04:49:49.200Z,99.90
2023-05-19T04:52:22.037Z,99.90
2023-05-19T04:54:49.386Z,99.90
2023-05-19T04:57:16.623Z,99.90
2023-05-19T04:59:44.200Z,99.90
2023-05-19T05:02:11.535Z,99.90
2023-05-19T05:04:42.723Z,99.90
2023-05-19T05:07:11.030Z,99.90
2023-05-19T05:09:38.451Z,99.90
2023-05-19T05:12:08.430Z,99.90
2023-05-19T05:14:36.435Z,99.90
2023-05-19T05:17:03.956Z,99.90
2023-05-19T05:19:31.873Z,99.90
2023-05-19T05:22:00.606Z,99.90
2023-05-19T05:24:28.371Z,99.90
2023-05-19T05:26:55.808Z,99.90
2023-05-19T05:29:23.177Z,99.90
2023-05-19T05:31:50.686Z,99.90
2023-05-19T05:34:18.341Z,99.90
2023-05-19T05:36:45.941Z,99.90
2023-05-19T05:39:13.281Z,99.90
2023-05-19T05:41:40.575Z,99.90
2023-05-19T05:44:07.914Z,99.90
2023-05-19T05:46:35.281Z,99.90
2023-05-19T05:49:02.843Z,99.90
2023-05-19T05:51:30.398Z,99.90
2023-05-19T05:53:58.013Z,99.90
2023-05-19T05:56:27.094Z,99.90
2023-05-19T05:58:54.526Z,99.90
2023-05-19T06:01:22.174Z,99.90
2023-05-19T06:03:49.566Z,99.90
2023-05-19T06:06:16.936Z,99.90
2023-05-19T06:08:44.240Z,99.90
2023-05-19T06:11:11.618Z,99.90
2023-05-19T06:13:39.300Z,99.90
2023-05-19T06:16:07.442Z,99.90
2023-05-19T06:18:35.110Z,99.90
2023-05-19T06:21:03.553Z,99.90
2023-05-19T06:23:31.333Z,99.90
2023-05-19T06:25:58.903Z,99.90
2023-05-19T06:28:26.705Z,99.90
2023-05-19T06:30:54.097Z,99.90
2023-05-19T06:33:21.609Z,99.90
2023-05-19T06:35:48.880Z,99.90
2023-05-19T06:38:16.134Z,99.90
2023-05-19T06:40:43.462Z,99.80
2023-05-19T06:43:10.721Z,95.90
2023-05-19T06:45:38.292Z,95.60
2023-05-19T06:48:06.094Z,92.50
2023-05-19T06:50:33.618Z,91.40
2023-05-19T06:53:01.260Z,89.40
2023-05-19T06:55:28.787Z,87.50
2023-05-19T06:57:56.884Z,86.20
2023-05-19T07:00:24.417Z,84.20
2023-05-19T07:02:52.108Z,82.10
2023-05-19T07:05:19.739Z,81.30
2023-05-19T07:07:47.070Z,82.60
2023-05-19T07:10:14.547Z,79.90
2023-05-19T07:12:42.546Z,78.70
2023-05-19T07:15:10.813Z,78.80
2023-05-19T07:17:38.200Z,80.70
2023-05-19T07:20:10.664Z,78.20
2023-05-19T07:22:40.016Z,77.10
2023-05-19T07:25:08.455Z,77.70
2023-05-19T07:27:36.162Z,77.90
2023-05-19T07:30:04.451Z,78.90
2023-05-19T07:32:31.721Z,79.20
2023-05-19T07:34:59.293Z,81.20
2023-05-19T07:37:26.607Z,81.10
2023-05-19T07:39:54.133Z,80.10
2023-05-19T07:42:21.412Z,80.70
2023-05-19T07:44:48.874Z,79.70
2023-05-19T07:47:16.333Z,79.30
2023-05-19T07:49:43.588Z,80.00
2023-05-19T07:52:11.345Z,79.80
2023-05-19T07:54:38.713Z,79.00
2023-05-19T07:57:06.106Z,78.80
2023-05-19T07:59:33.616Z,78.40
2023-05-19T08:02:01.320Z,78.40
2023-05-19T08:04:28.953Z,78.50
2023-05-19T08:06:56.210Z,77.40
2023-05-19T08:09:23.960Z,78.80
2023-05-19T08:11:51.420Z,80.10
2023-05-19T08:14:19.703Z,79.80
2023-05-19T08:16:47.316Z,76.70
2023-05-19T08:19:14.788Z,80.60
2023-05-19T08:21:42.604Z,83.70
2023-05-19T08:24:10.754Z,81.70
2023-05-19T08:26:38.280Z,81.30
2023-05-19T08:29:05.639Z,79.80
2023-05-19T08:31:33.022Z,80.00
2023-05-19T08:34:00.514Z,77.80
2023-05-19T08:36:27.971Z,76.40
2023-05-19T08:38:55.299Z,76.60
2023-05-19T08:41:23.483Z,75.50
2023-05-19T08:43:51.655Z,74.90
2023-05-19T08:46:22.263Z,75.00
2023-05-19T08:48:53.353Z,72.70
2023-05-19T08:51:52.437Z,72.70
2023-05-19T08:54:20.996Z,73.60
2023-05-19T08:56:48.777Z,69.20
2023-05-19T08:59:16.782Z,70.70
2023-05-19T09:01:46.298Z,70.90
2023-05-19T09:04:14.210Z,71.90
2023-05-19T09:06:42.537Z,69.60
2023-05-19T09:09:10.656Z,70.60
2023-05-19T09:11:38.094Z,71.10
2023-05-19T09:14:05.974Z,72.20
2023-05-19T09:16:34.216Z,72.70
2023-05-19T09:19:01.923Z,74.20
2023-05-19T09:21:31.377Z,74.60
2023-05-19T09:24:04.619Z,69.20
2023-05-19T09:26:40.893Z,67.00
2023-05-19T09:29:16.651Z,66.70
2023-05-19T09:31:51.548Z,66.40
2023-05-19T09:34:19.655Z,65.00
2023-05-19T09:36:50.224Z,61.70
2023-05-19T09:39:18.863Z,60.90
2023-05-19T09:41:46.745Z,59.50
2023-05-19T09:44:23.569Z,61.50
2023-05-19T09:46:52.979Z,60.40
2023-05-19T09:49:25.648Z,62.30
2023-05-19T09:51:57.105Z,62.00
2023-05-19T09:54:26.388Z,64.90
2023-05-19T09:57:04.177Z,63.80
2023-05-19T09:59:33.873Z,64.90
2023-05-19T10:02:03.036Z,66.50
2023-05-19T10:04:31.777Z,68.30
2023-05-19T10:07:00.111Z,66.60
2023-05-19T10:09:29.006Z,66.40
2023-05-19T10:11:57.637Z,71.50
2023-05-19T10:14:26.596Z,70.80
2023-05-19T10:16:55.860Z,67.90
2023-05-19T10:19:25.487Z,66.60
2023-05-19T10:21:53.895Z,66.80
2023-05-19T10:24:21.928Z,68.90
2023-05-19T10:26:58.267Z,71.80
2023-05-19T10:29:38.400Z,70.90
2023-05-19T10:32:13.987Z,70.10
2023-05-19T10:35:15.820Z,72.40
2023-05-19T10:38:28.936Z,71.50
2023-05-19T10:41:21.809Z,71.00
2023-05-19T10:43:56.470Z,70.70
2023-05-19T10:46:25.894Z,70.10
2023-05-19T10:48:54.570Z,69.90
2023-05-19T10:51:29.514Z,66.80
2023-05-19T10:53:59.192Z,66.20
2023-05-19T10:56:36.433Z,63.20
2023-05-19T10:59:04.071Z,60.00
2023-05-19T11:01:33.708Z,58.30
2023-05-19T11:04:15.916Z,59.40
2023-05-19T11:06:51.735Z,59.80
2023-05-19T11:09:24.377Z,57.80
2023-05-19T11:12:04.040Z,56.00
2023-05-19T11:14:32.989Z,56.10
2023-05-19T11:17:01.169Z,58.20
2023-05-19T11:19:30.563Z,59.10
2023-05-19T11:22:08.049Z,63.20
2023-05-19T11:24:46.727Z,61.50
2023-05-19T11:27:19.957Z,61.80
2023-05-19T11:29:51.980Z,63.10
2023-05-19T11:32:22.601Z,62.30
2023-05-19T11:34:53.389Z,62.20
2023-05-19T11:37:21.289Z,61.70
2023-05-19T11:39:48.708Z,61.60
2023-05-19T11:42:16.759Z,62.10
2023-05-19T11:44:48.059Z,65.20
2023-05-19T11:47:16.149Z,61.70
2023-05-19T11:49:44.900Z,59.70
2023-05-19T11:52:12.289Z,57.50
2023-05-19T11:54:42.060Z,57.10
2023-05-19T11:57:11.121Z,54.70
2023-05-19T11:59:40.858Z,54.70
2023-05-19T12:02:22.128Z,54.80
2023-05-19T12:04:49.842Z,55.70
2023-05-19T12:07:19.171Z,59.60
2023-05-19T12:09:47.588Z,64.40
2023-05-19T12:12:22.109Z,65.70
2023-05-19T12:14:51.666Z,66.20
2023-05-19T12:17:24.384Z,68.80
2023-05-19T12:19:52.129Z,67.90
2023-05-19T12:22:20.290Z,67.00
2023-05-19T12:24:48.566Z,65.70
2023-05-19T12:27:26.712Z,68.60
2023-05-19T12:29:56.127Z,70.70
2023-05-19T12:32:28.309Z,73.20
2023-05-19T12:34:59.029Z,74.70
2023-05-19T12:37:27.877Z,72.80
2023-05-19T12:39:56.402Z,73.40
2023-05-19T12:42:26.762Z,73.60
2023-05-19T12:44:54.897Z,76.10
2023-05-19T12:47:22.711Z,75.30
2023-05-19T12:50:11.727Z,74.90
2023-05-19T12:52:44.047Z,75.90
2023-05-19T12:55:12.516Z,75.90
2023-05-19T12:57:45.047Z,76.90
2023-05-19T13:00:19.868Z,78.20
2023-05-19T13:03:01.846Z,78.70
2023-05-19T13:05:30.951Z,80.10
2023-05-19T13:08:04.827Z,79.50
2023-05-19T13:10:33.421Z,79.10
2023-05-19T13:13:01.738Z,81.70
2023-05-19T13:15:32.243Z,81.90
2023-05-19T13:18:01.373Z,80.70
2023-05-19T13:20:28.809Z,81.10
2023-05-19T13:22:57.212Z,80.30
2023-05-19T13:25:24.658Z,79.20
2023-05-19T13:27:51.904Z,80.60
2023-05-19T13:30:19.588Z,82.30
2023-05-19T13:32:47.117Z,81.40
2023-05-19T13:35:15.240Z,82.30
2023-05-19T13:37:43.165Z,81.20
2023-05-19T13:40:11.446Z,81.70
2023-05-19T13:42:39.368Z,82.40
2023-05-19T13:45:07.397Z,84.00
2023-05-19T13:47:34.737Z,85.00
2023-05-19T13:50:04.810Z,85.80
2023-05-19T13:52:32.637Z,85.40
2023-05-19T13:55:00.041Z,84.80
2023-05-19T13:57:27.435Z,85.60
2023-05-19T14:00:02.623Z,87.00
2023-05-19T14:02:34.244Z,87.30
2023-05-19T14:05:02.018Z,86.50
2023-05-19T14:07:30.843Z,86.80
2023-05-19T14:09:58.242Z,86.80
2023-05-19T14:12:34.795Z,86.10
2023-05-19T14:15:08.994Z,87.90
2023-05-19T14:17:36.558Z,87.70
2023-05-19T14:20:04.744Z,88.30
2023-05-19T14:22:32.454Z,88.60
2023-05-19T14:25:00.863Z,88.90
2023-05-19T14:27:28.155Z,88.10
2023-05-19T14:29:55.436Z,89.80
2023-05-19T14:32:23.092Z,86.90
2023-05-19T14:34:53.035Z,88.10
2023-05-19T14:37:20.965Z,89.10
2023-05-19T14:39:48.273Z,86.10
2023-05-19T14:42:15.807Z,86.10
2023-05-19T14:44:43.168Z,86.30
2023-05-19T14:47:11.497Z,87.90
2023-05-19T14:49:38.825Z,88.90
2023-05-19T14:52:06.397Z,88.20
2023-05-19T14:54:34.104Z,87.80
2023-05-19T14:57:01.833Z,87.80
2023-05-19T14:59:29.856Z,89.40
2023-05-19T15:01:57.079Z,88.70
2023-05-19T15:04:24.396Z,88.90
2023-05-19T15:07:05.756Z,88.30
2023-05-19T15:09:36.810Z,87.90
2023-05-19T15:12:04.567Z,86.50
2023-05-19T15:14:31.807Z,86.10
2023-05-19T15:16:59.478Z,83.90
2023-05-19T15:19:26.988Z,84.20
2023-05-19T15:21:54.552Z,83.40
2023-05-19T15:24:22.015Z,83.10
2023-05-19T15:26:49.513Z,82.90
2023-05-19T15:29:16.962Z,84.00
2023-05-19T15:31:44.466Z,84.20
2023-05-19T15:34:11.887Z,85.10
2023-05-19T15:36:39.285Z,87.00
2023-05-19T15:39:06.852Z,89.00
2023-05-19T15:41:34.117Z,90.90
2023-05-19T15:44:02.537Z,91.10
2023-05-19T15:46:30.715Z,90.70
2023-05-19T15:48:58.267Z,91.00
2023-05-19T15:51:26.528Z,91.60
2023-05-19T15:53:54.128Z,91.70
2023-05-19T15:56:22.651Z,92.20
2023-05-19T15:58:50.007Z,91.30
2023-05-19T16:01:18.650Z,90.70
2023-05-19T16:03:46.337Z,90.50
2023-05-19T16:06:14.234Z,90.50
2023-05-19T16:08:41.576Z,88.50
2023-05-19T16:11:09.042Z,89.50
2023-05-19T16:13:36.646Z,88.70
2023-05-19T16:16:04.758Z,88.60
2023-05-19T16:18:32.111Z,88.40
2023-05-19T16:20:59.453Z,88.30
2023-05-19T16:23:27.706Z,89.20
2023-05-19T16:25:55.116Z,89.20
2023-05-19T16:28:24.993Z,89.60
2023-05-19T16:30:52.506Z,90.00
2023-05-19T16:33:19.877Z,90.20
2023-05-19T16:35:47.226Z,90.30
2023-05-19T16:38:14.667Z,90.90
2023-05-19T16:40:42.064Z,90.90
2023-05-19T16:43:09.481Z,90.90
2023-05-19T16:45:36.989Z,90.60
2023-05-19T16:48:04.528Z,90.80
2023-05-19T16:50:31.872Z,90.80
2023-05-19T16:52:59.124Z,91.30
2023-05-19T16:55:27.129Z,91.60
2023-05-19T16:57:55.137Z,92.20
2023-05-19T17:00:22.700Z,92.40
2023-05-19T17:02:50.196Z,92.20
2023-05-19T17:05:18.235Z,92.80
2023-05-19T17:07:45.726Z,92.90
2023-05-19T17:10:14.162Z,93.10
2023-05-19T17:12:41.526Z,93.10
2023-05-19T17:15:09.187Z,93.90
2023-05-19T17:17:36.712Z,93.30
2023-05-19T17:20:04.271Z,93.60
2023-05-19T17:22:32.022Z,93.70
2023-05-19T17:24:59.317Z,93.50
2023-05-19T17:27:26.642Z,94.10
2023-05-19T17:29:53.995Z,94.00
2023-05-19T17:32:25.926Z,94.10
2023-05-19T17:34:53.829Z,93.90
2023-05-19T17:37:25.710Z,94.60
2023-05-19T17:39:53.248Z,94.50
2023-05-19T17:42:20.562Z,94.70
2023-05-19T17:44:47.917Z,95.10
2023-05-19T17:47:15.263Z,96.00
2023-05-19T17:49:42.494Z,97.10
2023-05-19T17:52:10.453Z,98.00
2023-05-19T17:54:38.086Z,99.10
2023-05-19T17:57:11.513Z,99.70
2023-05-19T17:59:39.195Z,99.90
2023-05-19T18:02:07.503Z,99.90
2023-05-19T18:04:35.410Z,99.90
2023-05-19T18:07:03.935Z,99.90
2023-05-19T18:09:33.401Z,99.90
2023-05-19T18:12:02.526Z,99.90
2023-05-19T18:14:29.929Z,99.90
2023-05-19T18:16:57.344Z,99.90
2023-05-19T18:19:24.710Z,99.90
2023-05-19T18:21:52.116Z,99.90
2023-05-19T18:24:19.372Z,99.90
2023-05-19T18:26:47.165Z,99.90
2023-05-19T18:29:14.855Z,99.90
2023-05-19T18:31:42.386Z,99.90
2023-05-19T18:34:09.860Z,99.90
2023-05-19T18:36:37.253Z,99.90
2023-05-19T18:39:04.756Z,99.90
2023-05-19T18:41:32.270Z,99.90
2023-05-19T18:43:59.882Z,99.90
2023-05-19T18:46:27.186Z,99.90
2023-05-19T18:48:54.589Z,99.90
2023-05-19T18:51:22.547Z,99.90
2023-05-19T18:53:51.063Z,99.90
2023-05-19T18:56:26.338Z,99.90
2023-05-19T18:58:54.984Z,99.90
2023-05-19T19:01:22.578Z,99.90
2023-05-19T19:03:51.964Z,99.90
2023-05-19T19:06:21.853Z,99.90
2023-05-19T19:08:54.757Z,99.90
2023-05-19T19:11:22.819Z,99.90
2023-05-19T19:13:51.534Z,99.90
2023-05-19T19:16:19.129Z,99.90
2023-05-19T19:18:47.103Z,99.90
2023-05-19T19:21:14.565Z,99.90
2023-05-19T19:23:42.113Z,99.90
2023-05-19T19:26:09.838Z,99.90
2023-05-19T19:28:37.339Z,99.90
2023-05-19T19:31:04.690Z,99.90
2023-05-19T19:33:32.161Z,99.90
2023-05-19T19:35:59.738Z,99.90
2023-05-19T19:38:27.072Z,99.90
2023-05-19T19:40:54.625Z,99.90
2023-05-19T19:43:22.398Z,99.90
2023-05-19T19:45:57.967Z,99.90
2023-05-19T19:48:25.387Z,99.90
2023-05-19T19:50:58.845Z,99.90
2023-05-19T19:53:26.174Z,99.90
2023-05-19T19:56:01.275Z,99.90
2023-05-19T19:58:29.689Z,99.90
2023-05-19T20:00:58.949Z,99.90
2023-05-19T20:03:27.898Z,99.90
2023-05-19T20:05:57.098Z,99.90
2023-05-19T20:08:25.291Z,99.90
2023-05-19T20:10:53.361Z,99.90
2023-05-19T20:13:21.081Z,99.90
2023-05-19T20:15:48.429Z,99.90
2023-05-19T20:18:15.917Z,99.90
2023-05-19T20:20:43.440Z,99.90
2023-05-19T20:23:10.869Z,99.90
2023-05-19T20:25:54.440Z,99.90
2023-05-19T20:28:29.037Z,99.90
2023-05-19T20:30:56.316Z,99.90
2023-05-19T20:33:23.683Z,99.90
2023-05-19T20:35:50.999Z,99.90
2023-05-19T20:38:18.268Z,99.90
2023-05-19T20:40:45.552Z,99.90
2023-05-19T20:43:13.193Z,99.90
2023-05-19T20:45:43.938Z,99.90
2023-05-19T20:48:11.903Z,99.90
2023-05-19T20:50:39.603Z,99.90
2023-05-19T20:53:07.616Z,99.90
2023-05-19T20:55:36.385Z,99.90
2023-05-19T20:58:03.769Z,99.90
2023-05-19T21:00:31.116Z,99.90
2023-05-19T21:02:58.595Z,99.90
2023-05-19T21:05:26.144Z,99.90
2023-05-19T21:07:53.494Z,99.90
2023-05-19T21:10:20.944Z,99.90
2023-05-19T21:12:48.414Z,99.90
2023-05-19T21:15:15.884Z,99.90
2023-05-19T21:17:43.212Z,99.90
2023-05-19T21:20:11.236Z,99.90
2023-05-19T21:22:38.470Z,99.90
2023-05-19T21:25:06.365Z,99.90
2023-05-19T21:27:35.919Z,99.90
2023-05-19T21:30:03.684Z,99.90
2023-05-19T21:32:31.007Z,99.90
2023-05-19T21:34:58.487Z,99.90
2023-05-19T21:37:25.763Z,99.90
2023-05-19T21:39:53.201Z,99.90
2023-05-19T21:42:20.637Z,99.90
2023-05-19T21:44:47.962Z,99.90
2023-05-19T21:47:16.204Z,99.90
2023-05-19T21:49:43.460Z,99.90
2023-05-19T21:52:10.815Z,99.90
2023-05-19T21:54:38.150Z,99.90
2023-05-19T21:57:05.825Z,99.90
2023-05-19T21:59:33.021Z,99.90
2023-05-19T22:02:00.523Z,99.90
2023-05-19T22:04:31.557Z,99.90
2023-05-19T22:06:58.939Z,99.90
2023-05-19T22:09:27.097Z,99.90
2023-05-19T22:11:54.860Z,99.90
2023-05-19T22:14:22.326Z,99.90
2023-05-19T22:16:49.593Z,99.90
2023-05-19T22:19:17.348Z,99.90
2023-05-19T22:21:44.652Z,99.90
2023-05-19T22:24:11.992Z,99.90
2023-05-19T22:26:42.945Z,99.90
2023-05-19T22:29:15.227Z,99.90
2023-05-19T22:31:42.497Z,99.90
2023-05-19T22:34:09.897Z,99.90
2023-05-19T22:36:37.268Z,99.90
2023-05-19T22:39:05.076Z,99.90
2023-05-19T22:41:32.403Z,99.90
2023-05-19T22:43:59.684Z,99.90
2023-05-19T22:46:27.320Z,99.90
2023-05-19T22:48:54.901Z,99.90
2023-05-19T22:51:22.326Z,99.90
2023-05-19T22:53:49.515Z,99.90
2023-05-19T22:56:16.794Z,99.90
2023-05-19T22:58:44.096Z,99.90
2023-05-19T23:01:11.458Z,99.90
2023-05-19T23:03:38.722Z,99.90
2023-05-19T23:06:06.184Z,99.90
2023-05-19T23:08:33.449Z,99.90
2023-05-19T23:11:02.308Z,99.90
2023-05-19T23:13:34.085Z,99.90
2023-05-19T23:16:01.255Z,99.90
2023-05-19T23:18:28.568Z,99.90
2023-05-19T23:20:56.148Z,99.90
2023-05-19T23:23:23.377Z,99.90
2023-05-19T23:25:50.715Z,99.90
2023-05-19T23:28:18.208Z,99.90
2023-05-19T23:30:45.430Z,99.90
2023-05-19T23:33:12.645Z,99.90
2023-05-19T23:35:39.938Z,99.90
2023-05-19T23:38:07.229Z,99.90
2023-05-19T23:40:34.518Z,99.90
2023-05-19T23:43:01.947Z,99.90
2023-05-19T23:45:29.255Z,99.90
2023-05-19T23:47:57.063Z,99.90
2023-05-19T23:50:24.425Z,99.90
2023-05-19T23:52:51.762Z,99.90
2023-05-19T23:55:20.295Z,99.90
2023-05-19T23:57:47.702Z,99.90
